sensor_id;sensor_type;location;lat;lon;timestamp;temperature;humidity
73547;SHT30;61807;48.384;-4.386;2023-04-24T00:00:05;11.02;69.83
73547;SHT30;61807;48.384;-4.386;2023-04-24T00:02:35;11.01;69.79
73547;SHT30;61807;48.384;-4.386;2023-04-24T00:05:06;11.01;69.84
73547;SHT30;61807;48.384;-4.386;2023-04-24T00:07:33;10.99;69.83
73547;SHT30;61807;48.384;-4.386;2023-04-24T00:09:58;10.98;69.91
73547;SHT30;61807;48.384;-4.386;2023-04-24T00:12:24;10.94;69.95
73547;SHT30;61807;48.384;-4.386;2023-04-24T00:14:50;10.96;69.96
73547;SHT30;61807;48.384;-4.386;2023-04-24T00:17:16;10.92;70.00
73547;SHT30;61807;48.384;-4.386;2023-04-24T00:19:45;10.91;70.14
73547;SHT30;61807;48.384;-4.386;2023-04-24T00:22:10;10.91;70.14
73547;SHT30;61807;48.384;-4.386;2023-04-24T00:24:36;10.85;70.20
73547;SHT30;61807;48.384;-4.386;2023-04-24T00:27:01;10.81;70.23
73547;SHT30;61807;48.384;-4.386;2023-04-24T00:29:27;10.79;70.26
73547;SHT30;61807;48.384;-4.386;2023-04-24T00:31:53;10.75;70.43
73547;SHT30;61807;48.384;-4.386;2023-04-24T00:34:19;10.71;70.49
73547;SHT30;61807;48.384;-4.386;2023-04-24T00:36:44;10.65;70.51
73547;SHT30;61807;48.384;-4.386;2023-04-24T00:39:10;10.60;70.71
73547;SHT30;61807;48.384;-4.386;2023-04-24T00:41:35;10.58;70.80
73547;SHT30;61807;48.384;-4.386;2023-04-24T00:44:01;10.57;70.84
73547;SHT30;61807;48.384;-4.386;2023-04-24T00:46:26;10.54;70.95
73547;SHT30;61807;48.384;-4.386;2023-04-24T00:48:52;10.50;70.99
73547;SHT30;61807;48.384;-4.386;2023-04-24T00:51:17;10.50;71.03
73547;SHT30;61807;48.384;-4.386;2023-04-24T00:53:43;10.48;71.12
73547;SHT30;61807;48.384;-4.386;2023-04-24T00:56:09;10.48;71.20
73547;SHT30;61807;48.384;-4.386;2023-04-24T00:58:34;10.46;71.18
73547;SHT30;61807;48.384;-4.386;2023-04-24T01:01:00;10.47;71.18
73547;SHT30;61807;48.384;-4.386;2023-04-24T01:03:29;10.43;71.16
73547;SHT30;61807;48.384;-4.386;2023-04-24T01:05:57;10.38;71.32
73547;SHT30;61807;48.384;-4.386;2023-04-24T01:08:24;10.34;71.45
73547;SHT30;61807;48.384;-4.386;2023-04-24T01:10:52;10.33;71.52
73547;SHT30;61807;48.384;-4.386;2023-04-24T01:13:18;10.32;71.56
73547;SHT30;61807;48.384;-4.386;2023-04-24T01:15:45;10.30;71.60
73547;SHT30;61807;48.384;-4.386;2023-04-24T01:18:10;10.30;71.70
73547;SHT30;61807;48.384;-4.386;2023-04-24T01:20:37;10.29;71.67
73547;SHT30;61807;48.384;-4.386;2023-04-24T01:23:05;10.27;71.68
73547;SHT30;61807;48.384;-4.386;2023-04-24T01:25:31;10.30;71.72
73547;SHT30;61807;48.384;-4.386;2023-04-24T01:27:57;10.29;71.74
73547;SHT30;61807;48.384;-4.386;2023-04-24T01:30:22;10.32;71.89
73547;SHT30;61807;48.384;-4.386;2023-04-24T01:32:48;10.30;71.87
73547;SHT30;61807;48.384;-4.386;2023-04-24T01:35:13;10.30;71.89
73547;SHT30;61807;48.384;-4.386;2023-04-24T01:37:39;10.30;71.88
73547;SHT30;61807;48.384;-4.386;2023-04-24T01:40:06;10.27;71.90
73547;SHT30;61807;48.384;-4.386;2023-04-24T01:42:32;10.26;71.96
73547;SHT30;61807;48.384;-4.386;2023-04-24T01:44:58;10.18;72.05
73547;SHT30;61807;48.384;-4.386;2023-04-24T01:47:24;10.17;72.14
73547;SHT30;61807;48.384;-4.386;2023-04-24T01:49:50;10.20;72.15
73547;SHT30;61807;48.384;-4.386;2023-04-24T01:52:16;10.16;72.27
73547;SHT30;61807;48.384;-4.386;2023-04-24T01:54:43;10.13;72.41
73547;SHT30;61807;48.384;-4.386;2023-04-24T01:57:08;10.13;72.54
73547;SHT30;61807;48.384;-4.386;2023-04-24T01:59:34;10.12;72.68
73547;SHT30;61807;48.384;-4.386;2023-04-24T02:02:01;10.16;72.84
73547;SHT30;61807;48.384;-4.386;2023-04-24T02:04:27;10.18;72.93
73547;SHT30;61807;48.384;-4.386;2023-04-24T02:06:52;10.26;72.97
73547;SHT30;61807;48.384;-4.386;2023-04-24T02:09:18;10.27;72.94
73547;SHT30;61807;48.384;-4.386;2023-04-24T02:11:43;10.29;72.92
73547;SHT30;61807;48.384;-4.386;2023-04-24T02:14:09;10.27;72.95
73547;SHT30;61807;48.384;-4.386;2023-04-24T02:16:34;10.27;72.92
73547;SHT30;61807;48.384;-4.386;2023-04-24T02:19:01;10.24;72.93
73547;SHT30;61807;48.384;-4.386;2023-04-24T02:21:27;10.20;72.96
73547;SHT30;61807;48.384;-4.386;2023-04-24T02:23:53;10.18;73.03
73547;SHT30;61807;48.384;-4.386;2023-04-24T02:26:18;10.14;73.12
73547;SHT30;61807;48.384;-4.386;2023-04-24T02:28:44;10.14;73.23
73547;SHT30;61807;48.384;-4.386;2023-04-24T02:31:09;10.12;73.41
73547;SHT30;61807;48.384;-4.386;2023-04-24T02:33:35;10.09;73.61
73547;SHT30;61807;48.384;-4.386;2023-04-24T02:36:01;10.09;73.60
73547;SHT30;61807;48.384;-4.386;2023-04-24T02:38:28;10.07;73.63
73547;SHT30;61807;48.384;-4.386;2023-04-24T02:40:53;10.07;73.63
73547;SHT30;61807;48.384;-4.386;2023-04-24T02:43:19;10.06;73.72
73547;SHT30;61807;48.384;-4.386;2023-04-24T02:45:44;10.07;73.68
73547;SHT30;61807;48.384;-4.386;2023-04-24T02:48:09;10.06;73.77
73547;SHT30;61807;48.384;-4.386;2023-04-24T02:50:35;10.10;73.75
73547;SHT30;61807;48.384;-4.386;2023-04-24T02:53:00;10.07;73.76
73547;SHT30;61807;48.384;-4.386;2023-04-24T02:55:25;10.05;73.92
73547;SHT30;61807;48.384;-4.386;2023-04-24T02:57:51;10.06;73.98
73547;SHT30;61807;48.384;-4.386;2023-04-24T03:00:16;10.06;74.02
73547;SHT30;61807;48.384;-4.386;2023-04-24T03:02:42;10.07;74.08
73547;SHT30;61807;48.384;-4.386;2023-04-24T03:05:07;10.07;74.13
73547;SHT30;61807;48.384;-4.386;2023-04-24T03:07:34;10.13;74.09
73547;SHT30;61807;48.384;-4.386;2023-04-24T03:09:59;10.16;74.10
73547;SHT30;61807;48.384;-4.386;2023-04-24T03:12:25;10.13;73.98
73547;SHT30;61807;48.384;-4.386;2023-04-24T03:14:50;10.13;74.03
73547;SHT30;61807;48.384;-4.386;2023-04-24T03:17:16;10.09;74.04
73547;SHT30;61807;48.384;-4.386;2023-04-24T03:19:41;10.09;74.02
73547;SHT30;61807;48.384;-4.386;2023-04-24T03:22:07;10.06;74.06
73547;SHT30;61807;48.384;-4.386;2023-04-24T03:24:34;10.03;74.15
73547;SHT30;61807;48.384;-4.386;2023-04-24T03:26:59;10.03;74.16
73547;SHT30;61807;48.384;-4.386;2023-04-24T03:29:25;10.05;74.27
73547;SHT30;61807;48.384;-4.386;2023-04-24T03:31:50;10.06;74.33
73547;SHT30;61807;48.384;-4.386;2023-04-24T03:34:16;10.06;74.31
73547;SHT30;61807;48.384;-4.386;2023-04-24T03:36:41;10.09;74.31
73547;SHT30;61807;48.384;-4.386;2023-04-24T03:39:07;10.07;74.32
73547;SHT30;61807;48.384;-4.386;2023-04-24T03:41:32;10.05;74.36
73547;SHT30;61807;48.384;-4.386;2023-04-24T03:43:58;10.06;74.43
73547;SHT30;61807;48.384;-4.386;2023-04-24T03:46:23;10.07;74.48
73547;SHT30;61807;48.384;-4.386;2023-04-24T03:48:49;10.07;74.58
73547;SHT30;61807;48.384;-4.386;2023-04-24T03:51:14;10.10;74.56
73547;SHT30;61807;48.384;-4.386;2023-04-24T03:53:40;10.13;74.58
73547;SHT30;61807;48.384;-4.386;2023-04-24T03:56:05;10.10;74.53
73547;SHT30;61807;48.384;-4.386;2023-04-24T03:58:31;10.07;74.55
73547;SHT30;61807;48.384;-4.386;2023-04-24T04:00:56;10.09;74.65
73547;SHT30;61807;48.384;-4.386;2023-04-24T04:03:25;10.07;74.85
73547;SHT30;61807;48.384;-4.386;2023-04-24T04:05:50;10.12;74.99
73547;SHT30;61807;48.384;-4.386;2023-04-24T04:08:16;10.18;75.08
73547;SHT30;61807;48.384;-4.386;2023-04-24T04:10:41;10.26;75.11
73547;SHT30;61807;48.384;-4.386;2023-04-24T04:13:06;10.36;75.09
73547;SHT30;61807;48.384;-4.386;2023-04-24T04:15:32;10.40;74.99
73547;SHT30;61807;48.384;-4.386;2023-04-24T04:17:57;10.43;74.95
73547;SHT30;61807;48.384;-4.386;2023-04-24T04:20:23;10.40;74.87
73547;SHT30;61807;48.384;-4.386;2023-04-24T04:22:48;10.41;74.77
73547;SHT30;61807;48.384;-4.386;2023-04-24T04:25:14;10.40;74.76
73547;SHT30;61807;48.384;-4.386;2023-04-24T04:27:39;10.41;74.71
73547;SHT30;61807;48.384;-4.386;2023-04-24T04:30:07;10.38;74.65
73547;SHT30;61807;48.384;-4.386;2023-04-24T04:32:34;10.37;74.67
73547;SHT30;61807;48.384;-4.386;2023-04-24T04:35:03;10.40;74.58
73547;SHT30;61807;48.384;-4.386;2023-04-24T04:37:32;10.37;74.61
73547;SHT30;61807;48.384;-4.386;2023-04-24T04:40:01;10.36;74.62
73547;SHT30;61807;48.384;-4.386;2023-04-24T04:42:31;10.34;74.63
73547;SHT30;61807;48.384;-4.386;2023-04-24T04:44:57;10.36;74.67
73547;SHT30;61807;48.384;-4.386;2023-04-24T04:47:23;10.33;74.68
73547;SHT30;61807;48.384;-4.386;2023-04-24T04:49:49;10.30;74.78
73547;SHT30;61807;48.384;-4.386;2023-04-24T04:52:16;10.32;74.72
73547;SHT30;61807;48.384;-4.386;2023-04-24T04:54:42;10.29;74.71
73547;SHT30;61807;48.384;-4.386;2023-04-24T04:57:07;10.27;74.62
73547;SHT30;61807;48.384;-4.386;2023-04-24T04:59:34;10.23;74.74
73547;SHT30;61807;48.384;-4.386;2023-04-24T05:01:59;10.24;74.61
73547;SHT30;61807;48.384;-4.386;2023-04-24T05:04:25;10.20;74.73
73547;SHT30;61807;48.384;-4.386;2023-04-24T05:06:51;10.17;74.74
73547;SHT30;61807;48.384;-4.386;2023-04-24T05:09:16;10.18;74.71
73547;SHT30;61807;48.384;-4.386;2023-04-24T05:11:42;10.14;74.73
73547;SHT30;61807;48.384;-4.386;2023-04-24T05:14:07;10.16;74.82
73547;SHT30;61807;48.384;-4.386;2023-04-24T05:16:33;10.14;74.82
73547;SHT30;61807;48.384;-4.386;2023-04-24T05:18:58;10.13;74.90
73547;SHT30;61807;48.384;-4.386;2023-04-24T05:21:23;10.12;74.96
73547;SHT30;61807;48.384;-4.386;2023-04-24T05:23:50;10.16;75.00
73547;SHT30;61807;48.384;-4.386;2023-04-24T05:26:15;10.23;75.02
73547;SHT30;61807;48.384;-4.386;2023-04-24T05:28:41;10.29;75.11
73547;SHT30;61807;48.384;-4.386;2023-04-24T05:31:06;10.37;75.14
73547;SHT30;61807;48.384;-4.386;2023-04-24T05:33:32;10.46;75.14
73547;SHT30;61807;48.384;-4.386;2023-04-24T05:35:57;10.53;75.06
73547;SHT30;61807;48.384;-4.386;2023-04-24T05:38:23;10.61;75.03
73547;SHT30;61807;48.384;-4.386;2023-04-24T05:40:48;10.69;74.97
73547;SHT30;61807;48.384;-4.386;2023-04-24T05:43:13;10.76;74.96
73547;SHT30;61807;48.384;-4.386;2023-04-24T05:45:39;10.84;74.91
73547;SHT30;61807;48.384;-4.386;2023-04-24T05:48:05;10.92;74.88
73547;SHT30;61807;48.384;-4.386;2023-04-24T05:50:30;10.99;74.79
73547;SHT30;61807;48.384;-4.386;2023-04-24T05:52:56;11.04;74.72
73547;SHT30;61807;48.384;-4.386;2023-04-24T05:55:25;11.11;74.70
73547;SHT30;61807;48.384;-4.386;2023-04-24T05:57:51;11.16;74.53
73547;SHT30;61807;48.384;-4.386;2023-04-24T06:00:16;11.19;74.45
73547;SHT30;61807;48.384;-4.386;2023-04-24T06:02:44;11.25;74.56
73547;SHT30;61807;48.384;-4.386;2023-04-24T06:05:10;11.27;74.48
73547;SHT30;61807;48.384;-4.386;2023-04-24T06:07:36;11.32;74.52
73547;SHT30;61807;48.384;-4.386;2023-04-24T06:10:01;11.36;74.57
73547;SHT30;61807;48.384;-4.386;2023-04-24T06:12:27;11.43;74.61
73547;SHT30;61807;48.384;-4.386;2023-04-24T06:14:52;11.46;74.56
73547;SHT30;61807;48.384;-4.386;2023-04-24T06:17:19;11.52;74.42
73547;SHT30;61807;48.384;-4.386;2023-04-24T06:19:44;11.56;74.39
73547;SHT30;61807;48.384;-4.386;2023-04-24T06:22:10;11.60;74.27
73547;SHT30;61807;48.384;-4.386;2023-04-24T06:24:35;11.62;74.20
73547;SHT30;61807;48.384;-4.386;2023-04-24T06:27:01;11.64;74.16
73547;SHT30;61807;48.384;-4.386;2023-04-24T06:29:27;11.70;74.14
73547;SHT30;61807;48.384;-4.386;2023-04-24T06:31:52;11.74;74.15
73547;SHT30;61807;48.384;-4.386;2023-04-24T06:34:18;11.80;74.10
73547;SHT30;61807;48.384;-4.386;2023-04-24T06:36:43;11.88;74.08
73547;SHT30;61807;48.384;-4.386;2023-04-24T06:39:09;11.99;74.04
73547;SHT30;61807;48.384;-4.386;2023-04-24T06:41:34;12.10;73.91
73547;SHT30;61807;48.384;-4.386;2023-04-24T06:44:00;12.22;73.86
73547;SHT30;61807;48.384;-4.386;2023-04-24T06:46:26;12.28;73.88
73547;SHT30;61807;48.384;-4.386;2023-04-24T06:48:53;12.36;73.90
73547;SHT30;61807;48.384;-4.386;2023-04-24T06:51:23;12.43;73.90
73547;SHT30;61807;48.384;-4.386;2023-04-24T06:53:48;12.56;73.95
73547;SHT30;61807;48.384;-4.386;2023-04-24T06:56:15;12.64;73.81
73547;SHT30;61807;48.384;-4.386;2023-04-24T06:58:40;12.76;73.68
73547;SHT30;61807;48.384;-4.386;2023-04-24T07:01:05;12.87;73.62
73547;SHT30;61807;48.384;-4.386;2023-04-24T07:03:31;12.94;73.45
73547;SHT30;61807;48.384;-4.386;2023-04-24T07:05:56;13.04;73.32
73547;SHT30;61807;48.384;-4.386;2023-04-24T07:08:23;13.12;73.21
73547;SHT30;61807;48.384;-4.386;2023-04-24T07:10:49;13.17;73.02
73547;SHT30;61807;48.384;-4.386;2023-04-24T07:13:15;13.22;72.77
73547;SHT30;61807;48.384;-4.386;2023-04-24T07:15:41;13.24;72.59
73547;SHT30;61807;48.384;-4.386;2023-04-24T07:18:06;13.34;72.75
73547;SHT30;61807;48.384;-4.386;2023-04-24T07:20:32;13.39;72.63
73547;SHT30;61807;48.384;-4.386;2023-04-24T07:22:58;13.48;72.48
73547;SHT30;61807;48.384;-4.386;2023-04-24T07:25:23;13.54;72.40
73547;SHT30;61807;48.384;-4.386;2023-04-24T07:27:49;13.58;72.30
73547;SHT30;61807;48.384;-4.386;2023-04-24T07:30:14;13.63;72.15
73547;SHT30;61807;48.384;-4.386;2023-04-24T07:32:40;13.69;72.25
73547;SHT30;61807;48.384;-4.386;2023-04-24T07:35:05;13.70;72.15
73547;SHT30;61807;48.384;-4.386;2023-04-24T07:37:31;13.75;72.14
73547;SHT30;61807;48.384;-4.386;2023-04-24T07:39:57;13.78;72.13
73547;SHT30;61807;48.384;-4.386;2023-04-24T07:42:22;13.85;72.09
73547;SHT30;61807;48.384;-4.386;2023-04-24T07:44:48;13.89;71.88
73547;SHT30;61807;48.384;-4.386;2023-04-24T07:47:13;13.96;71.78
73547;SHT30;61807;48.384;-4.386;2023-04-24T07:49:42;14.00;71.78
73547;SHT30;61807;48.384;-4.386;2023-04-24T07:52:08;14.07;71.68
73547;SHT30;61807;48.384;-4.386;2023-04-24T07:54:33;14.17;71.51
73547;SHT30;61807;48.384;-4.386;2023-04-24T07:56:58;14.27;71.50
73547;SHT30;61807;48.384;-4.386;2023-04-24T07:59:25;14.34;71.47
73547;SHT30;61807;48.384;-4.386;2023-04-24T08:01:50;14.42;71.18
73547;SHT30;61807;48.384;-4.386;2023-04-24T08:04:16;14.38;70.99
73547;SHT30;61807;48.384;-4.386;2023-04-24T08:06:43;14.37;71.00
73547;SHT30;61807;48.384;-4.386;2023-04-24T08:09:08;14.34;71.00
73547;SHT30;61807;48.384;-4.386;2023-04-24T08:11:34;14.33;70.90
73547;SHT30;61807;48.384;-4.386;2023-04-24T08:13:59;14.36;70.91
73547;SHT30;61807;48.384;-4.386;2023-04-24T08:16:25;14.44;70.99
73547;SHT30;61807;48.384;-4.386;2023-04-24T08:18:51;14.51;70.82
73547;SHT30;61807;48.384;-4.386;2023-04-24T08:21:16;14.49;70.80
73547;SHT30;61807;48.384;-4.386;2023-04-24T08:23:44;14.52;70.76
73547;SHT30;61807;48.384;-4.386;2023-04-24T08:26:09;14.54;70.67
73547;SHT30;61807;48.384;-4.386;2023-04-24T08:28:36;14.57;70.54
73547;SHT30;61807;48.384;-4.386;2023-04-24T08:31:01;14.61;70.27
73547;SHT30;61807;48.384;-4.386;2023-04-24T08:33:27;14.61;70.28
73547;SHT30;61807;48.384;-4.386;2023-04-24T08:35:57;14.65;70.20
73547;SHT30;61807;48.384;-4.386;2023-04-24T08:38:25;14.67;70.08
73547;SHT30;61807;48.384;-4.386;2023-04-24T08:40:50;14.74;69.92
73547;SHT30;61807;48.384;-4.386;2023-04-24T08:43:16;14.82;69.77
73547;SHT30;61807;48.384;-4.386;2023-04-24T08:45:42;14.82;69.59
73547;SHT30;61807;48.384;-4.386;2023-04-24T08:48:07;14.81;69.33
73547;SHT30;61807;48.384;-4.386;2023-04-24T08:50:34;14.86;68.93
73547;SHT30;61807;48.384;-4.386;2023-04-24T08:53:01;14.88;68.52
73547;SHT30;61807;48.384;-4.386;2023-04-24T08:55:26;14.93;68.44
73547;SHT30;61807;48.384;-4.386;2023-04-24T08:57:52;14.95;67.75
73547;SHT30;61807;48.384;-4.386;2023-04-24T09:00:20;14.89;67.51
73547;SHT30;61807;48.384;-4.386;2023-04-24T09:02:49;14.81;67.62
73547;SHT30;61807;48.384;-4.386;2023-04-24T09:05:16;14.72;67.81
73547;SHT30;61807;48.384;-4.386;2023-04-24T09:07:45;14.63;67.73
73547;SHT30;61807;48.384;-4.386;2023-04-24T09:10:13;14.57;67.92
73547;SHT30;61807;48.384;-4.386;2023-04-24T09:12:39;14.61;67.97
73547;SHT30;61807;48.384;-4.386;2023-04-24T09:15:07;14.58;67.55
73547;SHT30;61807;48.384;-4.386;2023-04-24T09:17:33;14.61;67.50
73547;SHT30;61807;48.384;-4.386;2023-04-24T09:19:59;14.64;67.52
73547;SHT30;61807;48.384;-4.386;2023-04-24T09:22:24;14.71;67.30
73547;SHT30;61807;48.384;-4.386;2023-04-24T09:25:01;14.78;66.61
73547;SHT30;61807;48.384;-4.386;2023-04-24T09:27:28;14.92;66.44
73547;SHT30;61807;48.384;-4.386;2023-04-24T09:29:55;14.99;65.95
73547;SHT30;61807;48.384;-4.386;2023-04-24T09:32:21;15.13;65.54
73547;SHT30;61807;48.384;-4.386;2023-04-24T09:34:47;15.39;65.14
73547;SHT30;61807;48.384;-4.386;2023-04-24T09:37:29;15.58;64.35
73547;SHT30;61807;48.384;-4.386;2023-04-24T09:40:17;15.63;64.46
73547;SHT30;61807;48.384;-4.386;2023-04-24T09:42:53;15.61;64.66
73547;SHT30;61807;48.384;-4.386;2023-04-24T09:45:20;15.54;64.82
73547;SHT30;61807;48.384;-4.386;2023-04-24T09:47:45;15.49;65.29
73547;SHT30;61807;48.384;-4.386;2023-04-24T09:50:15;15.44;65.53
73547;SHT30;61807;48.384;-4.386;2023-04-24T09:52:55;15.39;65.11
73547;SHT30;61807;48.384;-4.386;2023-04-24T09:55:21;15.32;65.35
73547;SHT30;61807;48.384;-4.386;2023-04-24T09:58:04;15.27;65.28
73547;SHT30;61807;48.384;-4.386;2023-04-24T10:00:33;15.19;65.39
73547;SHT30;61807;48.384;-4.386;2023-04-24T10:03:00;15.13;64.91
73547;SHT30;61807;48.384;-4.386;2023-04-24T10:05:33;15.07;65.12
73547;SHT30;61807;48.384;-4.386;2023-04-24T10:08:03;15.07;65.23
73547;SHT30;61807;48.384;-4.386;2023-04-24T10:10:30;15.10;65.42
73547;SHT30;61807;48.384;-4.386;2023-04-24T10:12:56;15.20;65.22
73547;SHT30;61807;48.384;-4.386;2023-04-24T10:15:22;15.35;64.89
73547;SHT30;61807;48.384;-4.386;2023-04-24T10:17:49;15.51;64.31
73547;SHT30;61807;48.384;-4.386;2023-04-24T10:20:25;15.68;63.97
73547;SHT30;61807;48.384;-4.386;2023-04-24T10:22:52;15.85;63.27
73547;SHT30;61807;48.384;-4.386;2023-04-24T10:25:23;16.01;62.49
73547;SHT30;61807;48.384;-4.386;2023-04-24T10:27:51;16.08;61.74
73547;SHT30;61807;48.384;-4.386;2023-04-24T10:30:18;16.11;61.22
73547;SHT30;61807;48.384;-4.386;2023-04-24T10:32:44;16.16;61.20
73547;SHT30;61807;48.384;-4.386;2023-04-24T10:35:12;16.18;61.25
73547;SHT30;61807;48.384;-4.386;2023-04-24T10:37:45;16.18;61.49
73547;SHT30;61807;48.384;-4.386;2023-04-24T10:40:17;16.19;61.31
73547;SHT30;61807;48.384;-4.386;2023-04-24T10:42:47;16.24;60.80
73547;SHT30;61807;48.384;-4.386;2023-04-24T10:45:17;16.30;60.95
73547;SHT30;61807;48.384;-4.386;2023-04-24T10:47:59;16.30;60.21
73547;SHT30;61807;48.384;-4.386;2023-04-24T10:50:27;16.26;60.63
73547;SHT30;61807;48.384;-4.386;2023-04-24T10:52:53;16.29;60.90
73547;SHT30;61807;48.384;-4.386;2023-04-24T10:55:41;16.41;61.39
73547;SHT30;61807;48.384;-4.386;2023-04-24T10:58:06;16.49;60.89
73547;SHT30;61807;48.384;-4.386;2023-04-24T11:00:32;16.56;60.68
73547;SHT30;61807;48.384;-4.386;2023-04-24T11:02:57;16.56;61.00
73547;SHT30;61807;48.384;-4.386;2023-04-24T11:05:49;16.55;60.53
73547;SHT30;61807;48.384;-4.386;2023-04-24T11:08:22;16.49;60.97
73547;SHT30;61807;48.384;-4.386;2023-04-24T11:13:24;16.45;61.65
73547;SHT30;61807;48.384;-4.386;2023-04-24T11:16:26;16.35;61.27
73547;SHT30;61807;48.384;-4.386;2023-04-24T11:24:31;15.97;60.39
73547;SHT30;61807;48.384;-4.386;2023-04-24T11:27:00;15.97;60.18
73547;SHT30;61807;48.384;-4.386;2023-04-24T11:29:42;16.01;60.07
73547;SHT30;61807;48.384;-4.386;2023-04-24T11:34:47;16.24;59.99
73547;SHT30;61807;48.384;-4.386;2023-04-24T11:37:13;16.55;59.64
73547;SHT30;61807;48.384;-4.386;2023-04-24T11:39:39;16.84;59.11
73547;SHT30;61807;48.384;-4.386;2023-04-24T11:42:05;17.15;58.36
73547;SHT30;61807;48.384;-4.386;2023-04-24T11:44:33;17.25;56.98
73547;SHT30;61807;48.384;-4.386;2023-04-24T11:46:59;17.59;57.37
73547;SHT30;61807;48.384;-4.386;2023-04-24T11:49:25;17.96;57.14
73547;SHT30;61807;48.384;-4.386;2023-04-24T11:51:50;18.37;56.19
73547;SHT30;61807;48.384;-4.386;2023-04-24T11:54:20;18.71;55.06
73547;SHT30;61807;48.384;-4.386;2023-04-24T11:56:47;18.79;54.93
73547;SHT30;61807;48.384;-4.386;2023-04-24T11:59:12;18.69;55.33
73547;SHT30;61807;48.384;-4.386;2023-04-24T12:01:47;18.44;55.05
73547;SHT30;61807;48.384;-4.386;2023-04-24T12:04:15;18.47;55.17
73547;SHT30;61807;48.384;-4.386;2023-04-24T12:07:01;18.65;54.41
73547;SHT30;61807;48.384;-4.386;2023-04-24T12:09:27;18.48;53.91
73547;SHT30;61807;48.384;-4.386;2023-04-24T12:11:56;18.69;54.13
73547;SHT30;61807;48.384;-4.386;2023-04-24T12:14:25;18.91;53.83
73547;SHT30;61807;48.384;-4.386;2023-04-24T12:16:51;18.84;53.68
73547;SHT30;61807;48.384;-4.386;2023-04-24T12:19:23;19.33;52.83
73547;SHT30;61807;48.384;-4.386;2023-04-24T12:22:05;19.71;52.38
73547;SHT30;61807;48.384;-4.386;2023-04-24T12:24:31;19.58;52.35
73547;SHT30;61807;48.384;-4.386;2023-04-24T12:26:57;19.56;52.02
73547;SHT30;61807;48.384;-4.386;2023-04-24T12:29:23;19.30;52.32
73547;SHT30;61807;48.384;-4.386;2023-04-24T12:31:52;19.16;52.67
73547;SHT30;61807;48.384;-4.386;2023-04-24T12:34:21;18.94;53.12
73547;SHT30;61807;48.384;-4.386;2023-04-24T12:36:48;18.65;53.33
73547;SHT30;61807;48.384;-4.386;2023-04-24T12:39:18;18.47;53.38
73547;SHT30;61807;48.384;-4.386;2023-04-24T12:41:59;18.41;53.36
73547;SHT30;61807;48.384;-4.386;2023-04-24T12:44:33;18.45;53.43
73547;SHT30;61807;48.384;-4.386;2023-04-24T12:47:00;18.34;53.25
73547;SHT30;61807;48.384;-4.386;2023-04-24T12:49:26;18.41;52.31
73547;SHT30;61807;48.384;-4.386;2023-04-24T12:51:51;18.26;52.00
73547;SHT30;61807;48.384;-4.386;2023-04-24T12:54:17;18.06;52.79
73547;SHT30;61807;48.384;-4.386;2023-04-24T12:56:42;17.80;52.41
73547;SHT30;61807;48.384;-4.386;2023-04-24T12:59:08;17.46;53.80
73547;SHT30;61807;48.384;-4.386;2023-04-24T13:01:33;17.24;55.02
73547;SHT30;61807;48.384;-4.386;2023-04-24T13:03:58;16.99;56.33
73547;SHT30;61807;48.384;-4.386;2023-04-24T13:06:24;16.85;57.08
73547;SHT30;61807;48.384;-4.386;2023-04-24T13:08:49;16.77;57.62
73547;SHT30;61807;48.384;-4.386;2023-04-24T13:11:16;16.74;57.99
73547;SHT30;61807;48.384;-4.386;2023-04-24T13:13:41;16.70;58.19
73547;SHT30;61807;48.384;-4.386;2023-04-24T13:16:07;16.60;58.73
73547;SHT30;61807;48.384;-4.386;2023-04-24T13:18:32;16.55;58.87
73547;SHT30;61807;48.384;-4.386;2023-04-24T13:20:58;16.56;59.39
73547;SHT30;61807;48.384;-4.386;2023-04-24T13:23:23;16.59;59.48
73547;SHT30;61807;48.384;-4.386;2023-04-24T13:25:48;16.70;59.22
73547;SHT30;61807;48.384;-4.386;2023-04-24T13:28:14;16.76;59.11
73547;SHT30;61807;48.384;-4.386;2023-04-24T13:30:39;16.76;59.16
73547;SHT30;61807;48.384;-4.386;2023-04-24T13:33:05;16.72;59.05
73547;SHT30;61807;48.384;-4.386;2023-04-24T13:35:30;16.69;59.04
73547;SHT30;61807;48.384;-4.386;2023-04-24T13:37:57;16.66;58.43
73547;SHT30;61807;48.384;-4.386;2023-04-24T13:40:23;16.69;57.60
73547;SHT30;61807;48.384;-4.386;2023-04-24T13:42:48;16.64;57.66
73547;SHT30;61807;48.384;-4.386;2023-04-24T13:45:14;16.63;57.36
73547;SHT30;61807;48.384;-4.386;2023-04-24T13:47:39;16.55;57.19
73547;SHT30;61807;48.384;-4.386;2023-04-24T13:50:07;16.48;57.96
73547;SHT30;61807;48.384;-4.386;2023-04-24T13:52:33;16.46;58.10
73547;SHT30;61807;48.384;-4.386;2023-04-24T13:54:59;16.42;57.39
73547;SHT30;61807;48.384;-4.386;2023-04-24T13:57:24;16.36;57.52
73547;SHT30;61807;48.384;-4.386;2023-04-24T13:59:50;16.30;56.76
73547;SHT30;61807;48.384;-4.386;2023-04-24T14:02:15;16.25;57.12
73547;SHT30;61807;48.384;-4.386;2023-04-24T14:04:40;16.24;57.15
73547;SHT30;61807;48.384;-4.386;2023-04-24T14:07:06;16.28;57.69
73547;SHT30;61807;48.384;-4.386;2023-04-24T14:09:33;16.35;57.21
73547;SHT30;61807;48.384;-4.386;2023-04-24T14:11:58;16.39;56.96
73547;SHT30;61807;48.384;-4.386;2023-04-24T14:14:26;16.42;57.30
73547;SHT30;61807;48.384;-4.386;2023-04-24T14:16:51;16.45;57.22
73547;SHT30;61807;48.384;-4.386;2023-04-24T14:19:17;16.48;57.22
73547;SHT30;61807;48.384;-4.386;2023-04-24T14:21:42;16.53;57.42
73547;SHT30;61807;48.384;-4.386;2023-04-24T14:24:08;16.67;57.65
73547;SHT30;61807;48.384;-4.386;2023-04-24T14:26:34;16.87;57.54
73547;SHT30;61807;48.384;-4.386;2023-04-24T14:28:59;17.30;56.69
73547;SHT30;61807;48.384;-4.386;2023-04-24T14:31:25;17.90;56.38
73547;SHT30;61807;48.384;-4.386;2023-04-24T14:33:50;18.55;55.41
73547;SHT30;61807;48.384;-4.386;2023-04-24T14:36:16;18.79;54.04
73547;SHT30;61807;48.384;-4.386;2023-04-24T14:38:41;18.98;53.53
73547;SHT30;61807;48.384;-4.386;2023-04-24T14:41:07;18.73;53.79
73547;SHT30;61807;48.384;-4.386;2023-04-24T14:43:35;18.44;54.07
73547;SHT30;61807;48.384;-4.386;2023-04-24T14:46:01;18.20;54.35
73547;SHT30;61807;48.384;-4.386;2023-04-24T14:48:27;17.92;54.63
73547;SHT30;61807;48.384;-4.386;2023-04-24T14:50:53;17.63;55.45
73547;SHT30;61807;48.384;-4.386;2023-04-24T14:53:18;17.36;55.71
73547;SHT30;61807;48.384;-4.386;2023-04-24T14:55:44;17.14;55.89
73547;SHT30;61807;48.384;-4.386;2023-04-24T14:58:09;16.83;56.84
73547;SHT30;61807;48.384;-4.386;2023-04-24T15:00:35;16.51;58.02
73547;SHT30;61807;48.384;-4.386;2023-04-24T15:03:00;16.25;59.34
73547;SHT30;61807;48.384;-4.386;2023-04-24T15:05:26;16.05;59.86
73547;SHT30;61807;48.384;-4.386;2023-04-24T15:07:51;15.85;59.77
73547;SHT30;61807;48.384;-4.386;2023-04-24T15:10:17;15.68;59.84
73547;SHT30;61807;48.384;-4.386;2023-04-24T15:12:42;15.58;60.21
73547;SHT30;61807;48.384;-4.386;2023-04-24T15:15:08;15.47;60.49
73547;SHT30;61807;48.384;-4.386;2023-04-24T15:17:34;15.43;60.78
73547;SHT30;61807;48.384;-4.386;2023-04-24T15:20:00;15.42;60.60
73547;SHT30;61807;48.384;-4.386;2023-04-24T15:22:26;15.37;60.46